Time;durP1;ratioP1;P1;durP2;ratioP2;P2;SDS_P1;SDS_P2;PMS_P1;PMS_P2;Temp;Humidity;BMP_temperature;BMP_pressure;BME280_temperature;BME280_humidity;BME280_pressure;Samples;Min_cycle;Max_cycle;Signal;HPM_P1;HPM_P2
2024/04/12 00:01:13;;;;;;;1999.90;999.90;;;12.60;77.50;;;;;;6380520;22;20242;-67
2024/04/12 00:03:41;;;;;;;1999.90;999.90;;;12.50;77.70;;;;;;6380945;22;20618;-67
2024/04/12 00:06:17;;;;;;;1999.90;999.90;;;12.50;77.80;;;;;;6422975;22;20266;-67
2024/04/12 00:08:49;;;;;;;1999.90;999.90;;;12.50;78.10;;;;;;6424688;22;20279;-67
2024/04/12 00:11:18;;;;;;;1999.90;999.90;;;12.40;78.10;;;;;;6424245;22;20731;-67
2024/04/12 00:13:54;;;;;;;1999.90;999.90;;;12.50;78.20;;;;;;6424196;22;20650;-68
2024/04/12 00:16:26;;;;;;;1999.90;999.90;;;12.50;78.30;;;;;;6423135;22;20226;-67
2024/04/12 00:21:41;;;;;;;1999.90;999.90;;;12.50;78.10;;;;;;6474701;22;20348;-67
2024/04/12 00:24:11;;;;;;;1999.90;999.90;;;12.40;78.20;;;;;;6430513;22;20537;-67
2024/04/12 00:26:43;;;;;;;1999.90;999.90;;;12.30;78.40;;;;;;6473582;22;20214;-68
2024/04/12 00:29:22;;;;;;;1999.90;999.90;;;12.30;78.50;;;;;;6474316;22;20218;-67
2024/04/12 00:31:52;;;;;;;1999.90;999.90;;;12.30;78.40;;;;;;6474585;22;20460;-67
2024/04/12 00:34:18;;;;;;;1999.90;999.90;;;12.40;78.40;;;;;;6474798;22;20262;-67
2024/04/12 00:36:44;;;;;;;1999.90;999.90;;;12.40;78.30;;;;;;6473528;22;20538;-68
2024/04/12 00:39:35;;;;;;;1999.90;999.90;;;12.40;78.30;;;;;;6474938;22;20214;-68
2024/04/12 00:41:59;;;;;;;1999.90;999.90;;;12.40;78.30;;;;;;6474212;22;20249;-67
2024/04/12 00:44:29;;;;;;;1999.90;999.90;;;12.40;78.20;;;;;;6475126;22;20275;-68
2024/04/12 00:46:59;;;;;;;1999.90;999.90;;;12.40;78.20;;;;;;6429402;22;20773;-67
2024/04/12 00:49:30;;;;;;;1999.90;999.90;;;12.40;78.30;;;;;;6474325;22;20955;-67
2024/04/12 00:52:02;;;;;;;1999.90;999.90;;;12.40;78.40;;;;;;6474543;22;20214;-67
2024/04/12 00:54:29;;;;;;;1999.90;999.90;;;12.40;78.40;;;;;;6474869;22;20249;-67
2024/04/12 00:56:56;;;;;;;1999.90;999.90;;;12.40;78.50;;;;;;6474036;22;20952;-68
2024/04/12 00:59:23;;;;;;;1999.90;999.90;;;12.40;78.60;;;;;;6474575;22;20249;-69
2024/04/12 01:01:50;;;;;;;1999.90;999.90;;;12.30;78.70;;;;;;6474578;22;20256;-67
2024/04/12 01:04:20;;;;;;;1999.90;999.90;;;12.30;78.90;;;;;;6474806;22;20328;-70
2024/04/12 01:06:47;;;;;;;1999.90;999.90;;;12.30;79.10;;;;;;6429955;22;20226;-67
2024/04/12 01:09:13;;;;;;;1999.90;999.90;;;12.30;79.10;;;;;;6476499;22;20264;-67
2024/04/12 01:11:39;;;;;;;1999.90;999.90;;;12.40;79.10;;;;;;6476846;22;20218;-68
2024/04/12 01:14:08;;;;;;;1999.90;999.90;;;12.40;79.00;;;;;;6476894;22;20219;-68
2024/04/12 01:16:35;;;;;;;1999.90;999.90;;;12.40;79.00;;;;;;6475836;22;20214;-67
2024/04/12 01:19:01;;;;;;;1999.90;999.90;;;12.40;79.10;;;;;;6476573;22;20218;-67
2024/04/12 01:21:26;;;;;;;1999.90;999.90;;;12.40;79.20;;;;;;6428881;22;20270;-74
2024/04/12 01:23:53;;;;;;;1999.90;999.90;;;12.40;79.30;;;;;;6426146;22;20250;-67
2024/04/12 01:26:20;;;;;;;1999.90;999.90;;;12.30;79.50;;;;;;6381517;22;20219;-67
2024/04/12 01:28:48;;;;;;;1999.90;999.90;;;12.30;79.70;;;;;;6382193;22;20547;-67
2024/04/12 01:31:17;;;;;;;1999.90;999.90;;;12.30;79.70;;;;;;6425768;22;20231;-67
2024/04/12 01:33:48;;;;;;;1999.90;999.90;;;12.20;79.70;;;;;;6426003;22;20223;-67
2024/04/12 01:36:18;;;;;;;1999.90;999.90;;;12.30;80.00;;;;;;6424875;22;20255;-67
2024/04/12 01:38:53;;;;;;;1999.90;999.90;;;12.20;80.20;;;;;;6425725;22;20219;-67
2024/04/12 01:41:31;;;;;;;1999.90;999.90;;;12.20;80.30;;;;;;6382278;22;20243;-67
2024/04/12 01:44:06;;;;;;;1999.90;999.90;;;12.10;80.60;;;;;;6426152;22;20286;-67
2024/04/12 01:46:39;;;;;;;1999.90;999.90;;;12.10;80.70;;;;;;6381488;22;20246;-67
2024/04/12 01:49:10;;;;;;;1999.90;999.90;;;12.10;80.80;;;;;;6425740;22;20524;-67
2024/04/12 01:51:36;;;;;;;1999.90;999.90;;;12.10;80.80;;;;;;6426020;22;20270;-67
2024/04/12 01:54:17;;;;;;;1999.90;999.90;;;12.10;80.90;;;;;;6425746;22;20220;-67
2024/04/12 01:56:48;;;;;;;1999.90;999.90;;;12.00;81.00;;;;;;6424837;22;20295;-67
2024/04/12 01:59:21;;;;;;;1999.90;999.90;;;12.00;81.10;;;;;;6425593;22;20712;-67
2024/04/12 02:01:48;;;;;;;1999.90;999.90;;;12.00;81.20;;;;;;6381614;22;20235;-67
2024/04/12 02:04:21;;;;;;;1999.90;999.90;;;12.00;81.10;;;;;;6425599;22;20293;-67
2024/04/12 02:06:51;;;;;;;1999.90;999.90;;;12.00;81.10;;;;;;6424612;22;20330;-67
2024/04/12 02:09:19;;;;;;;1999.90;999.90;;;11.90;81.20;;;;;;6425458;22;20220;-67
2024/04/12 02:11:46;;;;;;;1999.90;999.90;;;11.90;81.30;;;;;;6425646;22;20215;-67
2024/04/12 02:14:12;;;;;;;1999.90;999.90;;;11.90;81.40;;;;;;6425757;22;20220;-67
2024/04/12 02:16:39;;;;;;;1999.90;999.90;;;11.90;81.40;;;;;;6424933;22;20566;-67
2024/04/12 02:19:13;;;;;;;1999.90;999.90;;;11.90;81.30;;;;;;6424919;22;20364;-67
2024/04/12 02:21:40;;;;;;;1999.90;999.90;;;11.90;81.40;;;;;;6425490;22;20359;-68
2024/04/12 02:24:08;;;;;;;1999.90;999.90;;;11.80;81.40;;;;;;6425399;22;20254;-67
2024/04/12 02:26:35;;;;;;;1999.90;999.90;;;11.80;81.50;;;;;;6424239;22;20223;-67
2024/04/12 02:29:04;;;;;;;1999.90;999.90;;;11.80;81.60;;;;;;6425096;22;20539;-67
2024/04/12 02:31:35;;;;;;;1999.90;999.90;;;11.70;81.70;;;;;;6425154;22;20227;-67
2024/04/12 02:34:02;;;;;;;1999.90;999.90;;;11.70;81.70;;;;;;6381664;22;20580;-67
2024/04/12 02:36:30;;;;;;;1999.90;999.90;;;11.80;81.70;;;;;;6424324;22;20215;-67
2024/04/12 02:38:57;;;;;;;1999.90;999.90;;;11.80;81.60;;;;;;6425030;22;20263;-67
2024/04/12 02:41:24;;;;;;;1999.90;999.90;;;11.80;81.50;;;;;;6425208;22;20302;-68
2024/04/12 02:43:53;;;;;;;1999.90;999.90;;;11.70;81.70;;;;;;6425840;22;20326;-67
2024/04/12 02:46:23;;;;;;;1999.90;999.90;;;11.70;81.90;;;;;;6424206;22;20223;-67
2024/04/12 02:48:49;;;;;;;1999.90;999.90;;;11.70;81.90;;;;;;6425485;22;20341;-67
2024/04/12 02:51:20;;;;;;;1999.90;999.90;;;11.70;81.90;;;;;;6425275;22;20243;-67
2024/04/12 02:53:48;;;;;;;1999.90;999.90;;;11.70;82.60;;;;;;6425472;22;20662;-67
2024/04/12 02:56:14;;;;;;;1999.90;999.90;;;11.70;81.90;;;;;;6424218;22;20215;-67
2024/04/12 02:58:42;;;;;;;1999.90;999.90;;;11.70;82.00;;;;;;6425363;22;20221;-67
2024/04/12 03:01:13;;;;;;;1999.90;999.90;;;11.60;82.00;;;;;;6381250;22;20553;-67
2024/04/12 03:03:45;;;;;;;1999.90;999.90;;;11.60;82.10;;;;;;6425222;22;20219;-67
2024/04/12 03:06:11;;;;;;;1999.90;999.90;;;11.60;82.10;;;;;;6380314;22;20250;-67
2024/04/12 03:08:39;;;;;;;1999.90;999.90;;;11.60;81.90;;;;;;6425197;22;20223;-67
2024/04/12 03:11:22;;;;;;;1999.90;999.90;;;11.60;81.90;;;;;;6424591;22;20278;-67
2024/04/12 03:13:51;;;;;;;1999.90;999.90;;;11.50;82.10;;;;;;6425027;22;20624;-67
2024/04/12 03:16:19;;;;;;;1999.90;999.90;;;11.50;82.30;;;;;;6423787;22;20216;-68
2024/04/12 03:18:54;;;;;;;1999.90;999.90;;;11.50;82.40;;;;;;6425093;22;20228;-67
2024/04/12 03:21:26;;;;;;;1999.90;999.90;;;11.50;82.30;;;;;;6425529;22;20230;-67
2024/04/12 03:23:52;;;;;;;1999.90;999.90;;;11.40;82.30;;;;;;6425716;22;20227;-67
2024/04/12 03:26:23;;;;;;;1999.90;999.90;;;11.40;82.40;;;;;;6423900;22;20683;-67
2024/04/12 03:28:55;;;;;;;1999.90;999.90;;;11.40;82.60;;;;;;6425317;22;20667;-67
2024/04/12 03:31:26;;;;;;;1999.90;999.90;;;11.40;82.60;;;;;;6425115;22;20250;-67
2024/04/12 03:33:54;;;;;;;1999.90;999.90;;;11.40;82.70;;;;;;6425304;22;20881;-67
2024/04/12 03:41:58;;;;;;;1999.90;999.90;;;11.40;82.90;;;;;;6425400;22;20267;-67
2024/04/12 03:44:31;;;;;;;1999.90;999.90;;;11.40;83.10;;;;;;6425667;22;20227;-67
2024/04/12 03:46:59;;;;;;;1999.90;999.90;;;11.40;83.00;;;;;;6424199;22;20215;-67
2024/04/12 03:49:28;;;;;;;1999.90;999.90;;;11.40;83.10;;;;;;6382475;22;20223;-67
2024/04/12 03:51:56;;;;;;;1999.90;999.90;;;11.30;83.00;;;;;;6381489;22;20226;-67
2024/04/12 03:54:23;;;;;;;1999.90;999.90;;;11.40;83.00;;;;;;6425703;22;20330;-67
2024/04/12 03:56:50;;;;;;;1999.90;999.90;;;11.40;82.90;;;;;;6423706;22;20790;-67
2024/04/12 03:59:29;;;;;;;1999.90;999.90;;;11.40;82.70;;;;;;6381617;22;20317;-67
2024/04/12 04:01:56;;;;;;;1999.90;999.90;;;11.40;82.50;;;;;;6426054;22;20273;-67
2024/04/12 04:04:31;;;;;;;1999.90;999.90;;;11.40;82.30;;;;;;6424818;22;20265;-67
2024/04/12 04:06:57;;;;;;;1999.90;999.90;;;11.30;82.10;;;;;;6380335;22;20263;-67
2024/04/12 04:09:25;;;;;;;1999.90;999.90;;;11.30;82.00;;;;;;6424621;22;20215;-67
2024/04/12 04:11:55;;;;;;;1999.90;999.90;;;11.20;81.90;;;;;;6424910;22;20250;-67
2024/04/12 04:14:27;;;;;;;1999.90;999.90;;;11.20;81.70;;;;;;6425934;22;20218;-67
2024/04/12 04:16:55;;;;;;;1999.90;999.90;;;11.20;81.70;;;;;;6424058;22;20216;-67
2024/04/12 04:22:04;;;;;;;1999.90;999.90;;;11.10;81.80;;;;;;6527858;22;20688;-67
2024/04/12 04:24:34;;;;;;;1999.90;999.90;;;11.10;82.40;;;;;;6527156;22;20304;-67
2024/04/12 04:27:02;;;;;;;1999.90;999.90;;;11.10;82.50;;;;;;6525505;22;20327;-69
2024/04/12 04:29:28;;;;;;;1999.90;999.90;;;11.20;82.70;;;;;;6526710;21;20233;-69
2024/04/12 04:31:56;;;;;;;1999.90;999.90;;;11.20;82.80;;;;;;6527775;22;20221;-69
2024/04/12 04:34:25;;;;;;;1999.90;999.90;;;11.20;83.10;;;;;;6527177;22;20297;-69
2024/04/12 04:36:55;;;;;;;1999.90;999.90;;;11.30;83.40;;;;;;6525936;22;20277;-67
2024/04/12 04:39:23;;;;;;;1999.90;999.90;;;11.40;83.70;;;;;;6526863;21;20220;-69
2024/04/12 04:41:53;;;;;;;1999.90;999.90;;;11.40;83.90;;;;;;6526251;22;20688;-69
2024/04/12 04:44:19;;;;;;;1999.90;999.90;;;11.50;84.20;;;;;;6524528;22;20521;-67
2024/04/12 04:46:49;;;;;;;1999.90;999.90;;;11.50;84.20;;;;;;6526222;22;20221;-68
2024/04/12 04:49:19;;;;;;;1999.90;999.90;;;11.60;84.50;;;;;;6526799;21;20213;-67
2024/04/12 04:51:46;;;;;;;1999.90;999.90;;;11.70;84.60;;;;;;6526522;22;20213;-69
2024/04/12 04:54:13;;;;;;;1999.90;999.90;;;11.80;84.70;;;;;;6482578;22;20603;-67
2024/04/12 04:56:43;;;;;;;1999.90;999.90;;;11.90;84.90;;;;;;6524926;22;20556;-67
2024/04/12 05:01:49;;;;;;;1999.90;999.90;;;12.10;85.20;;;;;;6475714;21;20308;-68
2024/04/12 05:04:20;;;;;;;1999.90;999.90;;;12.10;85.50;;;;;;6475532;22;20535;-68
2024/04/12 05:06:53;;;;;;;1999.90;999.90;;;12.20;85.50;;;;;;6473849;22;20248;-67
2024/04/12 05:09:19;;;;;;;1999.90;999.90;;;12.20;85.70;;;;;;6474291;22;20608;-68
2024/04/12 05:11:46;;;;;;;1999.90;999.90;;;12.30;85.80;;;;;;6430248;22;20241;-68
2024/04/12 05:14:41;;;;;;;1999.90;999.90;;;12.40;85.80;;;;;;6474516;22;20248;-68
2024/04/12 05:17:04;;;;;;;1999.90;999.90;;;12.50;85.80;;;;;;6474007;22;20534;-68
2024/04/12 05:19:40;;;;;;;1999.90;999.90;;;12.60;86.50;;;;;;6476541;22;20331;-68
2024/04/12 05:22:13;;;;;;;1999.90;999.90;;;12.60;86.00;;;;;;6474501;22;20254;-68
2024/04/12 05:24:42;;;;;;;1999.90;999.90;;;12.70;86.00;;;;;;6473870;22;20219;-68
2024/04/12 05:27:11;;;;;;;1999.90;999.90;;;12.80;85.90;;;;;;6473164;22;20269;-68
2024/04/12 05:29:37;;;;;;;1999.90;999.90;;;12.80;85.80;;;;;;6474103;22;20623;-67
2024/04/12 05:32:06;;;;;;;1999.90;999.90;;;12.90;85.90;;;;;;6474106;22;20215;-68
2024/04/12 05:34:32;;;;;;;1999.90;999.90;;;12.90;86.10;;;;;;6474841;22;20261;-68
2024/04/12 05:37:03;;;;;;;1999.90;999.90;;;13.00;86.20;;;;;;6473616;22;20318;-68
2024/04/12 05:45:31;;;;;;;1999.90;999.90;;;13.20;86.70;;;;;;6550887;21;20208;-68
2024/04/12 05:47:59;;;;;;;1999.90;999.90;;;13.30;86.80;;;;;;6577286;21;20209;-68
2024/04/12 05:50:25;;;;;;;1999.90;999.90;;;13.40;86.70;;;;;;6577711;21;20722;-68
2024/04/12 05:52:52;;;;;;;1999.90;999.90;;;13.50;86.70;;;;;;6578167;21;20212;-68
2024/04/12 05:55:19;;;;;;;1999.90;999.90;;;13.60;86.80;;;;;;6579882;21;20718;-68
2024/04/12 05:57:47;;;;;;;1999.90;999.90;;;13.70;86.70;;;;;;6578390;21;20228;-68
2024/04/12 06:00:12;;;;;;;1999.90;999.90;;;13.70;86.80;;;;;;6579693;21;20292;-68
2024/04/12 06:02:43;;;;;;;1999.90;999.90;;;13.80;87.00;;;;;;6579852;21;20310;-68
2024/04/12 06:05:09;;;;;;;1999.90;999.90;;;13.80;87.00;;;;;;6580244;21;20251;-68
2024/04/12 06:07:37;;;;;;;1999.90;999.90;;;13.90;87.10;;;;;;6578618;21;20212;-68
2024/04/12 06:15:56;;;;;;;1999.90;999.90;;;14.10;87.20;;;;;;6528330;21;20285;-68
2024/04/12 06:18:31;;;;;;;1999.90;999.90;;;14.20;87.50;;;;;;6526758;22;20292;-68
2024/04/12 06:20:57;;;;;;;1999.90;999.90;;;14.40;87.30;;;;;;6527164;21;20288;-68
2024/04/12 06:23:23;;;;;;;1999.90;999.90;;;14.50;87.10;;;;;;6527806;22;20213;-68
2024/04/12 06:25:49;;;;;;;1999.90;999.90;;;14.60;87.20;;;;;;6527409;22;20327;-68
2024/04/12 06:28:19;;;;;;;1999.90;999.90;;;14.60;87.20;;;;;;6525443;22;20723;-68
2024/04/12 06:30:50;;;;;;;1999.90;999.90;;;14.70;87.40;;;;;;6527223;21;20539;-68
2024/04/12 06:33:22;;;;;;;1999.90;999.90;;;14.80;87.50;;;;;;6528343;22;20668;-68
2024/04/12 06:36:04;;;;;;;1999.90;999.90;;;14.90;87.30;;;;;;6528320;22;20220;-68
2024/04/12 06:38:31;;;;;;;1999.90;999.90;;;15.00;87.40;;;;;;6527155;22;20587;-68
2024/04/12 06:40:57;;;;;;;1999.90;999.90;;;15.10;87.30;;;;;;6527219;21;20269;-68
2024/04/12 06:43:23;;;;;;;1999.90;999.90;;;15.20;87.30;;;;;;6527290;22;20684;-68
2024/04/12 06:46:13;;;;;;;1999.90;999.90;;;15.20;87.20;;;;;;6524789;22;20222;-68
2024/04/12 06:48:42;;;;;;;1999.90;999.90;;;15.20;87.10;;;;;;6522395;22;20327;-68
2024/04/12 06:51:12;;;;;;;1999.90;999.90;;;15.30;86.80;;;;;;6524289;21;20240;-69
2024/04/12 06:53:45;;;;;;;1999.90;999.90;;;15.40;86.70;;;;;;6525389;22;20321;-68
2024/04/12 06:56:15;;;;;;;1999.90;999.90;;;15.40;86.40;;;;;;6523812;22;20535;-68
2024/04/12 06:58:48;;;;;;;1999.90;999.90;;;15.50;86.40;;;;;;6479407;22;20257;-68
2024/04/12 07:02:07;;;;;;;1999.90;999.90;;;15.60;86.30;;;;;;6491766;21;20272;-68
2024/04/12 07:04:53;;;;;;;1999.90;999.90;;;15.70;86.40;;;;;;6319647;22;20545;-68
2024/04/12 07:07:23;;;;;;;1999.90;999.90;;;15.80;86.00;;;;;;6463254;22;20267;-68
2024/04/12 07:09:59;;;;;;;1999.90;999.90;;;15.90;86.00;;;;;;6474355;22;20258;-68
2024/04/12 07:12:31;;;;;;;1999.90;999.90;;;15.90;86.00;;;;;;6475369;22;20219;-68
2024/04/12 07:14:56;;;;;;;1999.90;999.90;;;16.00;86.20;;;;;;6475702;22;20226;-68
2024/04/12 07:17:23;;;;;;;1999.90;999.90;;;16.10;86.00;;;;;;6474287;22;20315;-68
2024/04/12 07:22:34;;;;;;;1999.90;999.90;;;16.20;85.70;;;;;;6481879;21;20302;-68
2024/04/12 07:25:01;;;;;;;1999.90;999.90;;;16.20;85.70;;;;;;6475253;22;20329;-68
2024/04/12 07:27:30;;;;;;;1999.90;999.90;;;16.30;85.70;;;;;;6473880;22;20228;-68
2024/04/12 07:29:57;;;;;;;1999.90;999.90;;;16.40;85.70;;;;;;6474281;22;20687;-68
2024/04/12 07:32:23;;;;;;;1999.90;999.90;;;16.50;85.70;;;;;;6474877;22;20265;-68
2024/04/12 07:34:50;;;;;;;1999.90;999.90;;;16.50;85.40;;;;;;6475052;22;20603;-68
2024/04/12 07:37:32;;;;;;;1999.90;999.90;;;16.60;85.30;;;;;;6473761;22;20219;-68
2024/04/12 07:40:18;;;;;;;1999.90;999.90;;;16.60;85.20;;;;;;6474882;22;20246;-68
2024/04/12 07:42:48;;;;;;;1999.90;999.90;;;16.70;85.10;;;;;;6475226;22;20809;-68
2024/04/12 07:45:26;;;;;;;1999.90;999.90;;;16.80;85.00;;;;;;6474725;22;20215;-68
2024/04/12 07:47:54;;;;;;;1999.90;999.90;;;16.90;85.00;;;;;;6473988;22;20250;-68
2024/04/12 07:50:30;;;;;;;1999.90;999.90;;;17.00;84.90;;;;;;6474553;22;20259;-68
2024/04/12 07:52:59;;;;;;;1999.90;999.90;;;17.10;84.90;;;;;;6475053;22;20224;-68
2024/04/12 07:55:25;;;;;;;1999.90;999.90;;;17.30;84.90;;;;;;6475037;22;20268;-68
2024/04/12 07:57:53;;;;;;;1999.90;999.90;;;17.40;84.70;;;;;;6473730;22;20228;-68
2024/04/12 08:03:06;;;;;;;1999.90;999.90;;;17.60;84.20;;;;;;6482210;21;20296;-67
2024/04/12 08:05:42;;;;;;;1999.90;999.90;;;17.70;84.10;;;;;;6474172;22;20214;-68
2024/04/12 08:08:14;;;;;;;1999.90;999.90;;;17.80;83.80;;;;;;6473135;22;20293;-67
2024/04/12 08:10:41;;;;;;;1999.90;999.90;;;18.00;83.60;;;;;;6470730;22;20292;-68
2024/04/12 08:13:10;;;;;;;1999.90;999.90;;;18.10;83.40;;;;;;6474762;22;20852;-68
2024/04/12 08:15:41;;;;;;;1999.90;999.90;;;18.30;83.40;;;;;;6430120;22;20756;-68
2024/04/12 08:18:07;;;;;;;1999.90;999.90;;;18.50;82.90;;;;;;6474007;22;20719;-68
2024/04/12 08:20:39;;;;;;;1999.90;999.90;;;18.60;82.40;;;;;;6481588;21;20270;-68
2024/04/12 08:23:06;;;;;;;1999.90;999.90;;;18.80;82.30;;;;;;6474665;22;20256;-68
2024/04/12 08:25:36;;;;;;;1999.90;999.90;;;18.90;82.10;;;;;;6475204;22;20697;-68
2024/04/12 08:28:06;;;;;;;1999.90;999.90;;;19.20;81.80;;;;;;6473390;22;20621;-69
2024/04/12 08:30:51;;;;;;;1999.90;999.90;;;19.40;81.30;;;;;;6473319;22;20231;-69
2024/04/12 08:33:23;;;;;;;1999.90;999.90;;;19.50;80.70;;;;;;6474877;22;20249;-68
2024/04/12 08:35:55;;;;;;;1999.90;999.90;;;19.50;80.30;;;;;;6474873;22;20214;-68
2024/04/12 08:38:22;;;;;;;1999.90;999.90;;;19.40;80.20;;;;;;6470323;22;20275;-69
2024/04/12 08:40:52;;;;;;;1999.90;999.90;;;19.40;80.40;;;;;;6430119;22;20246;-68
2024/04/12 08:43:19;;;;;;;1999.90;999.90;;;19.50;80.30;;;;;;6474457;22;20226;-69
2024/04/12 08:45:47;;;;;;;1999.90;999.90;;;19.60;80.00;;;;;;6473116;22;20222;-69
2024/04/12 08:48:16;;;;;;;1999.90;999.90;;;19.60;79.60;;;;;;6472557;22;20264;-68
2024/04/12 08:50:50;;;;;;;1999.90;999.90;;;19.60;79.80;;;;;;6402599;22;20617;-69
2024/04/12 08:53:23;;;;;;;1999.90;999.90;;;19.60;79.80;;;;;;6423543;22;20265;-68
2024/04/12 08:55:49;;;;;;;1999.90;999.90;;;19.60;79.80;;;;;;6423782;22;20540;-69
2024/04/12 08:58:22;;;;;;;1999.90;999.90;;;19.50;79.70;;;;;;6422622;22;20264;-69
2024/04/12 09:00:53;;;;;;;1999.90;999.90;;;19.30;79.90;;;;;;6457121;21;20304;-69
2024/04/12 09:03:25;;;;;;;1999.90;999.90;;;19.30;80.30;;;;;;6473592;22;20211;-69
2024/04/12 09:05:52;;;;;;;1999.90;999.90;;;19.40;80.50;;;;;;6473866;22;20226;-68
2024/04/12 09:08:18;;;;;;;1999.90;999.90;;;19.40;80.40;;;;;;6473320;22;20218;-69
2024/04/12 09:10:45;;;;;;;1999.90;999.90;;;19.40;80.60;;;;;;6473981;22;20277;-69
2024/04/12 09:13:14;;;;;;;1999.90;999.90;;;19.50;80.70;;;;;;6474410;22;20218;-69
2024/04/12 09:15:43;;;;;;;1999.90;999.90;;;19.50;80.60;;;;;;6474051;22;20264;-69
2024/04/12 09:18:14;;;;;;;1999.90;999.90;;;19.60;80.40;;;;;;6473177;22;20328;-69
2024/04/12 09:20:40;;;;;;;1999.90;999.90;;;19.70;80.30;;;;;;6426552;22;20270;-82
2024/04/12 09:23:19;;;;;;;1999.90;999.90;;;19.70;80.80;;;;;;6432566;22;20226;-84
2024/04/12 09:25:54;;;;;;;1999.90;999.90;;;19.80;79.90;;;;;;6435114;22;20320;-83
2024/04/12 09:28:26;;;;;;;1999.90;999.90;;;19.80;80.00;;;;;;6435185;22;20248;-83
2024/04/12 09:33:50;;;;;;;1999.90;999.90;;;20.20;79.60;;;;;;6479439;22;20742;-82
2024/04/12 09:36:38;;;;;;;1999.90;999.90;;;20.40;79.10;;;;;;6436611;22;20226;-82
2024/04/12 09:39:14;;;;;;;1999.90;999.90;;;20.30;78.50;;;;;;6461536;21;20218;-82
2024/04/12 09:41:53;;;;;;;1999.90;999.90;;;20.20;78.50;;;;;;6461017;21;20222;-81
2024/04/12 09:44:38;;;;;;;1999.90;999.90;;;20.10;78.50;;;;;;6462144;22;20246;-81
2024/04/12 10:37:47;;;;;;;1999.90;999.90;;;24.50;68.20;;;;;;6427132;22;20399;-84
2024/04/12 10:40:13;;;;;;;1999.90;999.90;;;24.40;67.30;;;;;;6427105;22;20228;-84
2024/04/12 10:42:38;;;;;;;1999.90;999.90;;;24.20;67.10;;;;;;6384605;22;20227;-84
2024/04/12 10:45:08;;;;;;;1999.90;999.90;;;24.00;67.70;;;;;;6384284;22;20223;-85
2024/04/12 10:47:37;;;;;;;1999.90;999.90;;;24.20;68.30;;;;;;6426935;22;20266;-84
2024/04/12 10:50:07;;;;;;;1999.90;999.90;;;24.60;67.90;;;;;;6427754;22;20232;-84
2024/04/12 10:52:33;;;;;;;1999.90;999.90;;;24.60;66.40;;;;;;6384638;22;20231;-84
2024/04/12 10:55:01;;;;;;;1999.90;999.90;;;24.60;66.30;;;;;;6384715;22;20239;-85
2024/04/12 10:57:29;;;;;;;1999.90;999.90;;;24.70;66.00;;;;;;6426945;22;20302;-84
2024/04/12 11:00:00;;;;;;;1999.90;999.90;;;24.70;65.30;;;;;;6383761;22;20231;-83
2024/04/12 11:02:27;;;;;;;1999.90;999.90;;;24.60;65.50;;;;;;6384484;22;20259;-85
2024/04/12 11:05:06;;;;;;;1999.90;999.90;;;24.60;65.60;;;;;;6427992;22;20228;-84
2024/04/12 11:07:32;;;;;;;1999.90;999.90;;;24.40;65.30;;;;;;6383405;22;20526;-85
2024/04/12 11:09:58;;;;;;;1999.90;999.90;;;24.20;65.90;;;;;;6384477;22;20227;-85
2024/04/12 11:12:40;;;;;;;1999.90;999.90;;;24.10;65.90;;;;;;6428274;22;20254;-84
2024/04/12 11:32:12;;;;;;;1999.90;999.90;;;25.40;63.80;;;;;;6427123;22;20334;-85
2024/04/12 11:35:01;;;;;;;1999.90;999.90;;;25.60;62.90;;;;;;6384700;22;20219;-84
2024/04/12 11:37:34;;;;;;;1999.90;999.90;;;25.90;62.40;;;;;;6377068;22;20223;-85
2024/04/12 11:40:03;;;;;;;1999.90;999.90;;;26.20;61.80;;;;;;6384558;22;20220;-85
2024/04/12 11:42:32;;;;;;;1999.90;999.90;;;26.40;61.50;;;;;;6383678;22;20219;-84
2024/04/12 11:45:01;;;;;;;1999.90;999.90;;;27.30;60.80;;;;;;6383028;22;20326;-85
2024/04/12 11:47:27;;;;;;;1999.90;999.90;;;27.90;59.40;;;;;;6381918;22;20683;-84
2024/04/12 11:49:57;;;;;;;1999.90;999.90;;;27.80;58.50;;;;;;6382990;22;20227;-84
2024/04/12 11:52:25;;;;;;;1999.90;999.90;;;27.40;58.50;;;;;;6382739;22;20223;-84
2024/04/12 11:55:01;;;;;;;1999.90;999.90;;;27.00;58.70;;;;;;6383710;22;20223;-83
2024/04/12 11:58:08;;;;;;;1999.90;999.90;;;26.50;59.00;;;;;;6275991;22;20331;-84
2024/04/12 12:01:07;;;;;;;1999.90;999.90;;;26.30;59.50;;;;;;6152077;23;20252;-84
2024/04/12 12:03:38;;;;;;;1999.90;999.90;;;25.70;59.60;;;;;;6276628;22;20618;-84
2024/04/12 12:06:22;;;;;;;1999.90;999.90;;;25.40;60.70;;;;;;6286349;22;20281;-83
2024/04/12 12:09:20;;;;;;;1999.90;999.90;;;25.20;60.90;;;;;;6324187;22;20222;-82
2024/04/12 12:11:52;;;;;;;1999.90;999.90;;;25.00;60.90;;;;;;6324104;22;20246;-84
2024/04/12 12:14:19;;;;;;;1999.90;999.90;;;25.00;61.60;;;;;;6247522;22;20268;-85
2024/04/12 12:16:45;;;;;;;1999.90;999.90;;;25.10;61.70;;;;;;6381885;22;20219;-85
2024/04/12 12:19:11;;;;;;;1999.90;999.90;;;25.30;61.60;;;;;;6383165;22;20364;-85
2024/04/12 12:21:37;;;;;;;1999.90;999.90;;;25.40;61.30;;;;;;6383135;22;20239;-85
2024/04/12 12:24:06;;;;;;;1999.90;999.90;;;25.60;61.40;;;;;;6426939;22;20242;-85
2024/04/12 12:26:31;;;;;;;1999.90;999.90;;;25.70;60.90;;;;;;6425872;22;20215;-85
2024/04/12 12:28:58;;;;;;;1999.90;999.90;;;25.80;60.60;;;;;;6427136;22;20265;-85
2024/04/12 12:31:26;;;;;;;1999.90;999.90;;;25.80;60.40;;;;;;6383151;22;20304;-85
2024/04/12 12:33:52;;;;;;;1999.90;999.90;;;25.70;60.30;;;;;;6426637;22;20227;-86
2024/04/12 12:36:18;;;;;;;1999.90;999.90;;;25.60;59.90;;;;;;6382101;22;20708;-86
2024/04/12 12:38:44;;;;;;;1999.90;999.90;;;25.50;60.10;;;;;;6383083;22;20534;-85
2024/04/12 12:41:12;;;;;;;1999.90;999.90;;;25.40;60.30;;;;;;6426759;22;20273;-85
2024/04/12 12:43:44;;;;;;;1999.90;999.90;;;25.10;60.50;;;;;;6382806;22;20249;-85
2024/04/12 12:46:10;;;;;;;1999.90;999.90;;;25.00;61.10;;;;;;6381922;22;20262;-85
2024/04/12 12:48:39;;;;;;;1999.90;999.90;;;24.80;61.60;;;;;;6382852;22;20223;-85
2024/04/12 12:51:09;;;;;;;1999.90;999.90;;;24.70;61.60;;;;;;6382339;22;20274;-85
2024/04/12 12:53:36;;;;;;;1999.90;999.90;;;24.70;61.60;;;;;;6383100;22;20253;-85
2024/04/12 12:56:08;;;;;;;1999.90;999.90;;;24.70;61.60;;;;;;6425383;22;20254;-84
2024/04/12 12:58:34;;;;;;;1999.90;999.90;;;24.40;61.40;;;;;;6383305;22;20646;-85
2024/04/12 13:01:00;;;;;;;1999.90;999.90;;;24.20;61.90;;;;;;6382733;22;20255;-84
2024/04/12 13:03:31;;;;;;;1999.90;999.90;;;24.10;62.50;;;;;;6384006;22;20255;-85
2024/04/12 13:06:06;;;;;;;1999.90;999.90;;;24.10;62.80;;;;;;6384464;22;20622;-86
2024/04/12 13:08:40;;;;;;;1999.90;999.90;;;24.20;62.90;;;;;;6384633;22;20222;-85
2024/04/12 13:11:08;;;;;;;1999.90;999.90;;;24.20;62.70;;;;;;6428831;22;20228;-85
2024/04/12 13:13:41;;;;;;;1999.90;999.90;;;24.00;62.90;;;;;;6385080;22;20546;-85
2024/04/12 13:16:15;;;;;;;1999.90;999.90;;;23.80;63.20;;;;;;6427621;22;20215;-84
2024/04/12 13:18:45;;;;;;;1999.90;999.90;;;23.60;64.00;;;;;;6384340;22;20257;-85
2024/04/12 13:21:11;;;;;;;1999.90;999.90;;;23.50;64.10;;;;;;6385103;22;20278;-85
2024/04/12 13:23:41;;;;;;;1999.90;999.90;;;23.40;64.50;;;;;;6384768;22;20231;-85
2024/04/12 13:26:22;;;;;;;1999.90;999.90;;;23.30;65.00;;;;;;6385027;22;20275;-85
2024/04/12 13:28:54;;;;;;;1999.90;999.90;;;23.40;64.70;;;;;;6384922;22;20712;-85
2024/04/12 13:31:23;;;;;;;1999.90;999.90;;;23.50;64.90;;;;;;6428732;22;20639;-85
2024/04/12 13:33:50;;;;;;;1999.90;999.90;;;23.60;65.10;;;;;;6384755;22;20250;-85
2024/04/12 13:36:19;;;;;;;1999.90;999.90;;;23.70;64.70;;;;;;6383775;22;20254;-86
2024/04/12 13:38:49;;;;;;;1999.90;999.90;;;23.80;64.80;;;;;;6384442;22;20718;-85
2024/04/12 13:41:15;;;;;;;1999.90;999.90;;;23.90;64.50;;;;;;6384782;22;20294;-85
2024/04/12 13:43:46;;;;;;;1999.90;999.90;;;24.00;64.30;;;;;;6384859;22;20566;-85
2024/04/12 13:51:49;;;;;;;1999.90;999.90;;;24.20;63.50;;;;;;6428338;22;20649;-85
2024/04/12 13:54:23;;;;;;;1999.90;999.90;;;24.20;63.70;;;;;;6384542;22;20238;-85
2024/04/12 13:56:56;;;;;;;1999.90;999.90;;;24.30;63.50;;;;;;6426802;22;20291;-85
2024/04/12 13:59:30;;;;;;;1999.90;999.90;;;24.40;63.30;;;;;;6384834;22;20231;-84
2024/04/12 14:01:56;;;;;;;1999.90;999.90;;;24.60;63.40;;;;;;6428317;22;20321;-85